createdAt,value
2019-04-16T00:00:30.296Z,8.35
2019-04-16T00:01:30.233Z,8.37
2019-04-16T00:02:30.168Z,8.34
2019-04-16T00:03:30.101Z,8.34
2019-04-16T00:04:30.037Z,8.32
2019-04-16T00:05:29.973Z,8.21
2019-04-16T00:06:29.910Z,8.32
2019-04-16T00:07:29.840Z,8.32
2019-04-16T00:08:29.777Z,8.23
2019-04-16T00:09:29.704Z,8.10
2019-04-16T00:10:29.642Z,7.98
2019-04-16T00:11:29.579Z,7.95
2019-04-16T00:12:29.511Z,7.95
2019-04-16T00:13:29.447Z,7.88
2019-04-16T00:14:29.386Z,7.86
2019-04-16T00:15:29.316Z,7.81
2019-04-16T00:16:29.252Z,7.78
2019-04-16T00:17:29.185Z,7.68
2019-04-16T00:18:29.120Z,7.71
2019-04-16T00:19:29.054Z,7.77
2019-04-16T00:20:28.987Z,7.64
2019-04-16T00:21:28.928Z,7.55
2019-04-16T00:22:28.857Z,7.44
2019-04-16T00:23:28.793Z,7.44
2019-04-16T00:24:28.727Z,7.40
2019-04-16T00:25:28.666Z,7.42
2019-04-16T00:26:28.595Z,7.37
2019-04-16T00:27:29.351Z,7.28
2019-04-16T00:28:30.829Z,7.24
2019-04-16T00:29:32.713Z,7.16
2019-04-16T00:30:28.337Z,7.13
2019-04-16T00:31:28.316Z,7.16
2019-04-16T00:32:28.213Z,7.04
2019-04-16T00:33:28.136Z,7.00
2019-04-16T00:34:28.073Z,7.00
2019-04-16T00:35:28.007Z,7.01
2019-04-16T00:36:27.939Z,7.07
2019-04-16T00:37:27.879Z,7.10
2019-04-16T00:38:40.089Z,7.08
2019-04-16T00:39:27.747Z,7.08
2019-04-16T00:40:27.678Z,7.08
2019-04-16T00:41:27.614Z,7.00
2019-04-16T00:42:27.553Z,6.88
2019-04-16T00:43:27.480Z,6.85
2019-04-16T00:44:27.422Z,6.81
2019-04-16T00:45:27.351Z,6.81
2019-04-16T00:46:27.286Z,6.82
2019-04-16T00:47:27.231Z,6.81
2019-04-16T00:48:27.154Z,6.75
2019-04-16T00:49:27.199Z,6.82
2019-04-16T00:50:27.021Z,6.83
2019-04-16T00:51:26.956Z,6.74
2019-04-16T00:52:26.892Z,6.83
2019-04-16T00:53:26.823Z,6.85
2019-04-16T00:54:26.766Z,6.79
2019-04-16T00:55:26.695Z,6.78
2019-04-16T00:56:26.644Z,6.75
2019-04-16T00:57:26.561Z,6.85
2019-04-16T00:58:26.495Z,6.79
2019-04-16T00:59:26.434Z,6.78
2019-04-16T01:00:27.673Z,6.63
2019-04-16T01:01:26.299Z,6.78
2019-04-16T01:02:26.234Z,6.81
2019-04-16T01:03:26.165Z,6.83
2019-04-16T01:04:26.098Z,6.86
2019-04-16T01:05:26.035Z,6.82
2019-04-16T01:06:25.971Z,6.85
2019-04-16T01:07:25.906Z,6.88
2019-04-16T01:08:25.838Z,6.97
2019-04-16T01:09:25.849Z,6.99
2019-04-16T01:10:25.704Z,7.01
2019-04-16T01:11:25.639Z,7.08
2019-04-16T01:12:25.573Z,7.04
2019-04-16T01:13:25.510Z,7.07
2019-04-16T01:14:26.746Z,7.08
2019-04-16T01:15:25.378Z,6.96
2019-04-16T01:16:25.309Z,6.91
2019-04-16T01:17:25.247Z,6.96
2019-04-16T01:18:25.179Z,6.97
2019-04-16T01:19:25.114Z,6.93
2019-04-16T01:20:25.048Z,6.92
2019-04-16T01:21:24.982Z,6.88
2019-04-16T01:22:24.914Z,6.75
2019-04-16T01:23:24.848Z,6.70
2019-04-16T01:24:24.778Z,6.60
2019-04-16T01:25:24.713Z,6.60
2019-04-16T01:26:26.791Z,6.53
2019-04-16T01:27:28.535Z,6.53
2019-04-16T01:28:24.522Z,6.53
2019-04-16T01:29:24.456Z,6.55
2019-04-16T01:30:24.389Z,6.60
2019-04-16T01:31:24.335Z,6.57
2019-04-16T01:32:24.251Z,6.63
2019-04-16T01:33:24.188Z,6.61
2019-04-16T01:34:24.132Z,6.60
2019-04-16T01:35:24.056Z,6.53
2019-04-16T01:36:23.993Z,6.47
2019-04-16T01:37:25.780Z,6.40
2019-04-16T01:38:27.662Z,6.45
2019-04-16T01:39:23.792Z,6.35
2019-04-16T01:40:23.728Z,6.37
2019-04-16T01:41:23.675Z,6.30
2019-04-16T01:42:24.250Z,6.15
2019-04-16T01:43:25.758Z,6.13
2019-04-16T01:44:23.528Z,6.06
2019-04-16T01:45:23.399Z,6.15
2019-04-16T01:46:23.331Z,6.12
2019-04-16T01:47:23.264Z,6.09
2019-04-16T01:48:23.200Z,6.11
2019-04-16T01:49:23.133Z,6.09
2019-04-16T01:50:23.067Z,6.00
2019-04-16T01:51:22.999Z,5.94
2019-04-16T01:52:22.931Z,5.91
2019-04-16T01:53:22.868Z,5.94
2019-04-16T01:54:23.445Z,5.82
2019-04-16T01:55:25.550Z,5.79
2019-04-16T01:56:28.029Z,5.79
2019-04-16T01:57:22.603Z,5.77
2019-04-16T01:58:22.536Z,5.73
2019-04-16T01:59:22.467Z,5.75
2019-04-16T02:00:22.404Z,5.69
2019-04-16T02:01:22.337Z,5.66
2019-04-16T02:02:22.287Z,5.58
2019-04-16T02:03:22.205Z,5.55
2019-04-16T02:04:22.138Z,5.54
2019-04-16T02:05:23.225Z,5.47
2019-04-16T02:06:25.649Z,5.41
2019-04-16T02:07:21.935Z,5.43
2019-04-16T02:08:21.877Z,5.47
2019-04-16T02:09:23.111Z,5.34
2019-04-16T02:10:21.742Z,5.43
2019-04-16T02:11:21.677Z,5.41
2019-04-16T02:12:21.609Z,5.41
2019-04-16T02:13:21.543Z,5.43
2019-04-16T02:14:22.341Z,5.39
2019-04-16T02:15:21.840Z,5.29
2019-04-16T02:16:22.322Z,5.36
2019-04-16T02:17:21.276Z,5.29
2019-04-16T02:18:21.212Z,5.27
2019-04-16T02:19:21.154Z,5.19
2019-04-16T02:20:21.076Z,5.25
2019-04-16T02:21:21.005Z,5.14
2019-04-16T02:22:20.944Z,5.19
2019-04-16T02:23:20.876Z,5.09
2019-04-16T02:24:20.809Z,5.11
2019-04-16T02:25:20.748Z,5.12
2019-04-16T02:26:23.520Z,5.12
2019-04-16T02:27:20.615Z,5.14
2019-04-16T02:28:21.723Z,5.09
2019-04-16T02:29:20.477Z,5.09
2019-04-16T02:30:20.413Z,5.09
2019-04-16T02:31:20.356Z,5.14
2019-04-16T02:32:20.287Z,5.19
2019-04-16T02:33:20.218Z,5.18
2019-04-16T02:34:20.153Z,5.16
2019-04-16T02:35:20.077Z,5.15
2019-04-16T02:36:20.011Z,5.12
2019-04-16T02:37:19.947Z,5.16
2019-04-16T02:38:19.891Z,5.03
2019-04-16T02:39:25.636Z,5.11
2019-04-16T02:40:19.755Z,5.06
2019-04-16T02:41:23.395Z,5.04
2019-04-16T02:42:19.614Z,5.01
2019-04-16T02:43:19.548Z,4.93
2019-04-16T02:44:19.480Z,4.93
2019-04-16T02:45:23.372Z,4.98
2019-04-16T02:46:19.353Z,5.07
2019-04-16T02:47:19.278Z,5.06
2019-04-16T02:48:19.217Z,5.04
2019-04-16T02:49:23.000Z,5.04
2019-04-16T02:50:19.085Z,5.07
2019-04-16T02:51:19.019Z,5.03
2019-04-16T02:52:18.952Z,5.06
2019-04-16T02:53:24.328Z,5.12
2019-04-16T02:54:18.816Z,5.09
2019-04-16T02:55:18.748Z,5.06
2019-04-16T02:56:19.262Z,5.06
2019-04-16T02:57:18.619Z,4.98
2019-04-16T02:58:18.552Z,4.93
2019-04-16T02:59:18.484Z,4.86
2019-04-16T03:00:18.597Z,4.89
2019-04-16T03:01:20.899Z,4.89
2019-04-16T03:02:22.811Z,4.91
2019-04-16T03:03:18.212Z,4.89
2019-04-16T03:04:18.140Z,4.88
2019-04-16T03:05:18.079Z,4.89
2019-04-16T03:06:18.019Z,4.86
2019-04-16T03:07:17.943Z,4.85
2019-04-16T03:08:17.876Z,4.77
2019-04-16T03:09:17.811Z,4.85
2019-04-16T03:10:17.754Z,4.74
2019-04-16T03:11:18.107Z,4.78
2019-04-16T03:12:20.761Z,4.77
2019-04-16T03:13:17.564Z,4.64
2019-04-16T03:14:17.475Z,4.61
2019-04-16T03:15:17.411Z,4.61
2019-04-16T03:16:17.345Z,4.63
2019-04-16T03:17:17.274Z,4.61
2019-04-16T03:18:17.214Z,4.53
2019-04-16T03:19:20.104Z,4.53
2019-04-16T03:20:17.076Z,4.41
2019-04-16T03:21:17.010Z,4.51
2019-04-16T03:22:16.949Z,4.41
2019-04-16T03:23:16.878Z,4.42
2019-04-16T03:24:16.814Z,4.41
2019-04-16T03:25:16.741Z,4.30
2019-04-16T03:26:18.057Z,4.34
2019-04-16T03:27:21.755Z,4.35
2019-04-16T03:28:16.550Z,4.30
2019-04-16T03:29:16.469Z,4.24
2019-04-16T03:30:16.409Z,4.28
2019-04-16T03:31:22.143Z,4.35
2019-04-16T03:32:16.672Z,4.31
2019-04-16T03:33:16.606Z,4.30
2019-04-16T03:34:19.064Z,4.30
2019-04-16T03:35:16.075Z,4.34
2019-04-16T03:36:16.000Z,4.34
2019-04-16T03:37:15.937Z,4.27
2019-04-16T03:38:15.972Z,4.24
2019-04-16T03:39:15.805Z,4.34
2019-04-16T03:40:18.287Z,4.24
2019-04-16T03:41:15.667Z,4.20
2019-04-16T03:42:15.610Z,4.20
2019-04-16T03:43:15.537Z,4.13
2019-04-16T03:44:15.471Z,4.13
2019-04-16T03:45:15.400Z,4.20
2019-04-16T03:46:15.330Z,4.26
2019-04-16T03:47:15.709Z,4.36
2019-04-16T03:48:15.201Z,4.36
2019-04-16T03:49:15.130Z,4.41
2019-04-16T03:50:15.064Z,4.38
2019-04-16T03:51:15.015Z,4.36
2019-04-16T03:52:14.935Z,4.43
2019-04-16T03:53:17.534Z,4.60
2019-04-16T03:54:14.794Z,4.60
2019-04-16T03:55:14.730Z,4.72
2019-04-16T03:56:14.673Z,4.75
2019-04-16T03:57:14.596Z,4.71
2019-04-16T03:58:14.524Z,4.72
2019-04-16T03:59:14.460Z,4.72
2019-04-16T04:00:14.398Z,4.78
2019-04-16T04:01:15.405Z,4.77
2019-04-16T04:02:15.486Z,4.75
2019-04-16T04:03:14.193Z,4.83
2019-04-16T04:04:14.131Z,4.98
2019-04-16T04:05:14.055Z,5.07
2019-04-16T04:06:13.990Z,5.14
2019-04-16T04:07:13.923Z,5.15
2019-04-16T04:08:17.619Z,5.09
2019-04-16T04:09:13.802Z,5.24
2019-04-16T04:10:13.736Z,5.25
2019-04-16T04:11:13.671Z,5.29
2019-04-16T04:12:14.302Z,5.39
2019-04-16T04:13:17.271Z,5.39
2019-04-16T04:14:13.456Z,5.39
2019-04-16T04:15:13.388Z,5.39
2019-04-16T04:16:13.316Z,5.48
2019-04-16T04:17:13.253Z,5.36
2019-04-16T04:18:13.252Z,5.37
2019-04-16T04:19:15.157Z,5.34
2019-04-16T04:20:14.599Z,5.25
2019-04-16T04:21:12.993Z,5.18
2019-04-16T04:22:12.918Z,5.04
2019-04-16T04:23:12.849Z,5.01
2019-04-16T04:24:12.789Z,4.94
2019-04-16T04:25:12.719Z,4.89
2019-04-16T04:26:12.678Z,4.88
2019-04-16T04:27:15.735Z,4.79
2019-04-16T04:28:12.840Z,4.78
2019-04-16T04:29:12.451Z,4.77
2019-04-16T04:30:12.383Z,4.75
2019-04-16T04:31:12.316Z,4.63
2019-04-16T04:32:12.249Z,4.56
2019-04-16T04:33:12.184Z,4.56
2019-04-16T04:34:15.358Z,4.45
2019-04-16T04:35:12.050Z,4.48
2019-04-16T04:36:12.210Z,4.53
2019-04-16T04:37:11.916Z,4.39
2019-04-16T04:38:11.852Z,4.41
2019-04-16T04:40:12.944Z,4.41
2019-04-16T04:41:11.759Z,4.41
2019-04-16T04:42:11.581Z,4.51
2019-04-16T04:43:09.932Z,4.38
2019-04-16T04:43:11.512Z,4.56
2019-04-16T04:44:11.447Z,4.59
2019-04-16T04:45:11.391Z,4.59
2019-04-16T04:46:14.545Z,4.54
2019-04-16T04:47:11.258Z,4.64
2019-04-16T04:48:12.126Z,4.60
2019-04-16T04:49:11.224Z,4.71
2019-04-16T04:50:11.045Z,4.82
2019-04-16T04:51:10.985Z,4.83
2019-04-16T04:52:13.580Z,4.82
2019-04-16T04:53:10.848Z,4.96
2019-04-16T04:54:10.779Z,5.00
2019-04-16T04:55:10.707Z,5.06
2019-04-16T04:56:10.646Z,5.18
2019-04-16T04:57:10.581Z,5.33
2019-04-16T04:58:10.511Z,5.40
2019-04-16T04:59:10.590Z,5.44
2019-04-16T05:00:10.379Z,5.52
2019-04-16T05:01:13.333Z,5.61
2019-04-16T05:02:10.846Z,5.57
2019-04-16T05:03:12.480Z,5.66
2019-04-16T05:04:10.104Z,5.70
2019-04-16T05:05:10.041Z,5.73
2019-04-16T05:06:09.977Z,5.73
2019-04-16T05:07:10.031Z,5.55
2019-04-16T05:08:09.837Z,5.66
2019-04-16T05:09:09.774Z,5.73
2019-04-16T05:10:09.699Z,5.72
2019-04-16T05:11:09.636Z,5.84
2019-04-16T05:12:09.570Z,5.93
2019-04-16T05:13:09.507Z,6.02
2019-04-16T05:14:09.441Z,6.09
2019-04-16T05:15:09.370Z,6.13
2019-04-16T05:16:09.319Z,6.15
2019-04-16T05:17:09.399Z,6.13
2019-04-16T05:18:10.813Z,6.24
2019-04-16T05:19:13.855Z,6.37
2019-04-16T05:20:09.039Z,6.32
2019-04-16T05:21:08.967Z,6.35
2019-04-16T05:22:08.905Z,6.34
2019-04-16T05:23:08.835Z,6.34
2019-04-16T05:24:08.768Z,6.30
2019-04-16T05:25:08.705Z,6.35
2019-04-16T05:26:09.976Z,6.34
2019-04-16T05:27:09.374Z,6.42
2019-04-16T05:28:11.599Z,6.34
2019-04-16T05:29:08.438Z,6.34
2019-04-16T05:30:08.389Z,6.38
2019-04-16T05:31:08.303Z,6.45
2019-04-16T05:32:08.236Z,6.38
2019-04-16T05:33:08.175Z,6.38
2019-04-16T05:34:08.102Z,6.35
2019-04-16T05:35:10.283Z,6.43
2019-04-16T05:36:11.033Z,6.47
2019-04-16T05:37:07.906Z,6.49
2019-04-16T05:38:07.839Z,6.55
2019-04-16T05:39:07.772Z,6.52
2019-04-16T05:40:07.709Z,6.56
2019-04-16T05:41:13.582Z,6.61
2019-04-16T05:42:07.573Z,6.57
2019-04-16T05:43:07.505Z,6.61
2019-04-16T05:44:07.439Z,6.61
2019-04-16T05:45:07.378Z,6.65
2019-04-16T05:46:08.828Z,6.67
2019-04-16T05:47:07.239Z,6.78
2019-04-16T05:48:07.173Z,6.82
2019-04-16T05:49:07.104Z,6.68
2019-04-16T05:50:07.042Z,6.71
2019-04-16T05:51:06.978Z,6.67
2019-04-16T05:52:06.908Z,6.65
2019-04-16T05:53:08.261Z,6.74
2019-04-16T05:54:08.467Z,6.70
2019-04-16T05:55:06.709Z,6.71
2019-04-16T05:56:06.641Z,6.73
2019-04-16T05:57:06.576Z,6.78
2019-04-16T05:58:06.508Z,6.78
2019-04-16T05:59:06.442Z,6.79
2019-04-16T06:00:10.155Z,6.88
2019-04-16T06:01:06.350Z,6.78
2019-04-16T06:02:06.247Z,6.81
2019-04-16T06:03:06.177Z,6.78
2019-04-16T06:04:06.109Z,6.83
2019-04-16T06:05:06.044Z,6.92
2019-04-16T06:06:05.978Z,6.96
2019-04-16T06:07:07.747Z,6.97
2019-04-16T06:08:06.339Z,6.92
2019-04-16T06:09:05.781Z,6.97
2019-04-16T06:10:06.987Z,6.96
2019-04-16T06:11:05.647Z,7.01
2019-04-16T06:12:05.890Z,7.04
2019-04-16T06:13:05.515Z,7.08
2019-04-16T06:14:05.452Z,7.01
2019-04-16T06:15:05.382Z,6.96
2019-04-16T06:16:05.324Z,7.04
2019-04-16T06:17:05.249Z,7.06
2019-04-16T06:18:05.524Z,7.07
2019-04-16T06:19:05.118Z,7.13
2019-04-16T06:20:05.049Z,7.19
2019-04-16T06:21:04.983Z,7.22
2019-04-16T06:22:04.920Z,7.31
2019-04-16T06:23:04.862Z,7.37
2019-04-16T06:24:04.787Z,7.37
2019-04-16T06:25:09.335Z,7.39
2019-04-16T06:26:04.655Z,7.43
2019-04-16T06:27:04.654Z,7.50
2019-04-16T06:28:04.522Z,7.61
2019-04-16T06:29:04.454Z,7.68
2019-04-16T06:30:04.393Z,7.73
2019-04-16T06:31:05.269Z,7.84
2019-04-16T06:32:04.256Z,7.95
2019-04-16T06:33:04.193Z,7.98
2019-04-16T06:34:04.202Z,8.16
2019-04-16T06:35:04.060Z,8.09
2019-04-16T06:36:03.993Z,8.12
2019-04-16T06:37:03.932Z,8.17
2019-04-16T06:38:03.864Z,8.24
2019-04-16T06:39:03.798Z,8.34
2019-04-16T06:40:03.730Z,8.35
2019-04-16T06:41:04.202Z,8.46
2019-04-16T06:42:03.598Z,8.39
2019-04-16T06:43:03.534Z,8.56
2019-04-16T06:44:04.183Z,8.44
2019-04-16T06:45:04.917Z,8.38
2019-04-16T06:46:05.437Z,8.37
2019-04-16T06:47:03.272Z,8.42
2019-04-16T06:48:03.205Z,8.46
2019-04-16T06:49:03.144Z,8.44
2019-04-16T06:50:03.111Z,8.37
2019-04-16T06:51:03.009Z,8.44
2019-04-16T06:52:03.535Z,8.49
2019-04-16T06:53:02.877Z,8.52
2019-04-16T06:54:02.813Z,8.57
2019-04-16T06:55:03.750Z,8.44
2019-04-16T06:56:05.519Z,8.52
2019-04-16T06:57:02.661Z,8.47
2019-04-16T06:58:02.552Z,8.63
2019-04-16T06:59:02.486Z,8.78
2019-04-16T07:00:03.105Z,8.89
2019-04-16T07:01:05.913Z,9.01
2019-04-16T07:02:02.293Z,9.08
2019-04-16T07:03:03.025Z,9.09
2019-04-16T07:04:02.158Z,9.08
2019-04-16T07:05:02.158Z,9.04
2019-04-16T07:06:03.984Z,9.03
2019-04-16T07:07:01.970Z,9.12
2019-04-16T07:08:01.897Z,9.14
2019-04-16T07:09:01.832Z,9.27
2019-04-16T07:10:01.774Z,9.27
2019-04-16T07:11:01.701Z,9.33
2019-04-16T07:12:01.637Z,9.41
2019-04-16T07:13:01.572Z,9.34
2019-04-16T07:14:01.506Z,9.30
2019-04-16T07:15:01.444Z,9.33
2019-04-16T07:16:01.370Z,9.32
2019-04-16T07:17:01.311Z,9.22
2019-04-16T07:18:02.513Z,9.24
2019-04-16T07:19:01.182Z,9.26
2019-04-16T07:20:04.469Z,9.34
2019-04-16T07:21:01.050Z,9.33
2019-04-16T07:22:00.987Z,9.55
2019-04-16T07:23:00.921Z,9.69
2019-04-16T07:24:00.899Z,9.83
2019-04-16T07:25:04.152Z,9.67
2019-04-16T07:26:03.380Z,9.67
2019-04-16T07:27:00.882Z,9.78
2019-04-16T07:28:00.595Z,9.88
2019-04-16T07:29:00.535Z,9.87
2019-04-16T07:30:04.879Z,9.85
2019-04-16T07:31:00.499Z,9.85
2019-04-16T07:32:00.664Z,10.01
2019-04-16T07:33:01.123Z,9.91
2019-04-16T07:34:00.211Z,9.99
2019-04-16T07:35:00.140Z,9.99
2019-04-16T07:36:00.076Z,10.06
2019-04-16T07:37:00.703Z,10.05
2019-04-16T07:38:04.939Z,10.14
2019-04-16T07:38:59.884Z,10.09
2019-04-16T07:39:59.821Z,10.10
2019-04-16T07:40:59.756Z,10.08
2019-04-16T07:42:09.380Z,9.96
2019-04-16T07:42:59.634Z,9.98
2019-04-16T07:44:04.477Z,9.90
2019-04-16T07:44:59.509Z,9.98
2019-04-16T07:45:59.436Z,9.98
2019-04-16T07:46:59.390Z,10.09
2019-04-16T07:47:59.311Z,10.20
2019-04-16T07:48:59.239Z,10.26
2019-04-16T07:50:01.299Z,10.41
2019-04-16T07:51:01.859Z,10.52
2019-04-16T07:51:59.047Z,10.55
2019-04-16T07:52:58.985Z,10.64
2019-04-16T07:54:02.141Z,10.54
2019-04-16T07:54:58.854Z,10.34
2019-04-16T07:55:58.785Z,10.30
2019-04-16T07:56:58.769Z,10.31
2019-04-16T07:57:58.670Z,10.35
2019-04-16T07:59:01.292Z,10.18
2019-04-16T07:59:58.536Z,10.16
2019-04-16T08:00:58.467Z,10.14
2019-04-16T08:01:58.407Z,10.10
2019-04-16T08:02:58.340Z,10.14
2019-04-16T08:04:01.024Z,10.21
2019-04-16T08:04:58.212Z,10.27
2019-04-16T08:05:58.155Z,10.35
2019-04-16T08:06:58.085Z,10.52
2019-04-16T08:07:58.027Z,10.61
2019-04-16T08:08:58.509Z,10.68
2019-04-16T08:10:01.341Z,10.73
2019-04-16T08:10:57.829Z,10.87
2019-04-16T08:11:57.769Z,10.90
2019-04-16T08:13:00.538Z,10.79
2019-04-16T08:13:57.805Z,10.85
2019-04-16T08:15:12.114Z,11.03
2019-04-16T08:15:57.581Z,11.05
2019-04-16T08:16:57.443Z,11.08
2019-04-16T08:17:57.694Z,11.22
2019-04-16T08:18:57.310Z,11.18
2019-04-16T08:19:57.250Z,11.30
2019-04-16T08:21:02.365Z,11.52
2019-04-16T08:21:57.124Z,11.66
2019-04-16T08:22:57.060Z,11.91
2019-04-16T08:23:56.998Z,11.99
2019-04-16T08:24:59.618Z,12.07
2019-04-16T08:26:03.204Z,12.15
2019-04-16T08:26:56.804Z,12.28
2019-04-16T08:27:56.752Z,12.30
2019-04-16T08:28:56.676Z,12.40
2019-04-16T08:30:02.205Z,12.46
2019-04-16T08:30:56.551Z,12.51
2019-04-16T08:31:56.493Z,12.35
2019-04-16T08:32:56.428Z,12.30
2019-04-16T08:33:56.357Z,12.36
2019-04-16T08:34:56.531Z,12.38
2019-04-16T08:35:56.234Z,12.35
2019-04-16T08:36:56.176Z,12.33
2019-04-16T08:37:57.943Z,12.26
2019-04-16T08:38:56.045Z,12.23
2019-04-16T08:39:55.981Z,12.30
2019-04-16T08:40:56.057Z,12.40
2019-04-16T08:41:55.852Z,12.50
2019-04-16T08:42:57.541Z,12.73
2019-04-16T08:43:55.730Z,12.69
2019-04-16T08:44:55.664Z,12.66
2019-04-16T08:45:55.601Z,12.55
2019-04-16T08:46:58.371Z,12.55
2019-04-16T08:47:55.479Z,12.61
2019-04-16T08:48:55.413Z,12.62
2019-04-16T08:49:55.348Z,12.51
2019-04-16T08:50:57.936Z,12.35
2019-04-16T08:51:55.228Z,12.18
2019-04-16T08:52:55.171Z,12.05
2019-04-16T08:53:55.093Z,11.95
2019-04-16T08:54:55.105Z,12.00
2019-04-16T08:55:54.994Z,12.15
2019-04-16T08:56:54.906Z,12.22
2019-04-16T08:57:54.848Z,12.17
2019-04-16T08:59:00.016Z,12.25
2019-04-16T08:59:54.721Z,12.22
2019-04-16T09:00:54.655Z,12.30
2019-04-16T09:01:55.211Z,12.46
2019-04-16T09:02:57.572Z,12.46
2019-04-16T09:03:54.465Z,12.50
2019-04-16T09:04:54.408Z,12.53
2019-04-16T09:05:54.343Z,12.59
2019-04-16T09:06:54.279Z,12.72
2019-04-16T09:07:54.226Z,12.79
2019-04-16T09:08:54.153Z,12.88
2019-04-16T09:09:57.255Z,12.90
2019-04-16T09:10:54.029Z,12.93
2019-04-16T09:11:53.976Z,12.83
2019-04-16T09:13:03.263Z,12.84
2019-04-16T09:13:53.847Z,12.95
2019-04-16T09:14:56.071Z,13.06
2019-04-16T09:15:53.709Z,13.47
2019-04-16T09:16:53.651Z,13.73
2019-04-16T09:17:53.587Z,13.86
2019-04-16T09:18:53.524Z,13.98
2019-04-16T09:19:53.465Z,14.03
2019-04-16T09:20:53.398Z,14.09
2019-04-16T09:21:53.340Z,14.09
2019-04-16T09:22:54.509Z,14.12
2019-04-16T09:23:56.685Z,14.21
2019-04-16T09:24:53.149Z,14.15
2019-04-16T09:25:53.089Z,13.88
2019-04-16T09:26:55.681Z,13.86
2019-04-16T09:27:52.965Z,13.86
2019-04-16T09:28:52.901Z,13.82
2019-04-16T09:29:52.839Z,13.73
2019-04-16T09:30:52.782Z,13.79
2019-04-16T09:31:55.442Z,13.80
2019-04-16T09:32:52.655Z,13.78
2019-04-16T09:33:52.593Z,13.79
2019-04-16T09:34:52.533Z,13.68
2019-04-16T09:35:52.464Z,13.76
2019-04-16T09:36:52.404Z,13.79
2019-04-16T09:37:52.349Z,13.94
2019-04-16T09:38:52.279Z,14.31
2019-04-16T09:39:52.218Z,14.59
2019-04-16T09:40:52.159Z,14.63
2019-04-16T09:41:52.092Z,14.59
2019-04-16T09:42:52.045Z,14.56
2019-04-16T09:43:53.627Z,14.52
2019-04-16T09:44:51.906Z,14.56
2019-04-16T09:45:51.844Z,14.59
2019-04-16T09:46:52.386Z,14.59
2019-04-16T09:47:51.720Z,14.61
2019-04-16T09:48:51.664Z,14.53
2019-04-16T09:49:51.598Z,14.34
2019-04-16T09:50:51.534Z,14.49
2019-04-16T09:51:51.485Z,14.67
2019-04-16T09:52:52.509Z,14.71
2019-04-16T09:53:51.349Z,14.95
2019-04-16T09:54:51.290Z,15.10
2019-04-16T09:55:51.316Z,15.26
2019-04-16T09:56:51.163Z,15.26
2019-04-16T09:57:51.105Z,15.35
2019-04-16T09:58:51.045Z,15.56
2019-04-16T09:59:50.980Z,15.77
2019-04-16T10:00:50.917Z,15.95
2019-04-16T10:01:50.858Z,16.17
2019-04-16T10:02:50.795Z,16.32
2019-04-16T10:03:53.575Z,16.37
2019-04-16T10:04:50.673Z,16.61
2019-04-16T10:05:50.611Z,16.67
2019-04-16T10:06:50.587Z,16.65
2019-04-16T10:07:50.487Z,16.28
2019-04-16T10:08:50.437Z,16.28
2019-04-16T10:09:51.293Z,16.18
2019-04-16T10:10:50.320Z,16.26
2019-04-16T10:11:50.250Z,16.51
2019-04-16T10:12:50.223Z,16.43
2019-04-16T10:13:50.120Z,15.96
2019-04-16T10:14:50.074Z,15.66
2019-04-16T10:15:50.037Z,15.62
2019-04-16T10:16:49.957Z,15.66
2019-04-16T10:17:49.880Z,15.77
2019-04-16T10:18:49.820Z,15.84
2019-04-16T10:19:49.755Z,15.66
2019-04-16T10:20:49.698Z,15.80
2019-04-16T10:21:53.155Z,15.70
2019-04-16T10:22:49.573Z,15.50
2019-04-16T10:23:49.518Z,15.35
2019-04-16T10:24:49.470Z,15.41
2019-04-16T10:25:49.390Z,15.48
2019-04-16T10:26:49.347Z,15.68
2019-04-16T10:27:49.279Z,15.88
2019-04-16T10:28:49.218Z,15.98
2019-04-16T10:29:49.155Z,16.14
2019-04-16T10:30:49.084Z,16.34
2019-04-16T10:31:49.021Z,16.65
2019-04-16T10:32:48.964Z,16.92
2019-04-16T10:33:48.908Z,17.16
2019-04-16T10:34:48.846Z,17.22
2019-04-16T10:35:48.782Z,17.12
2019-04-16T10:36:48.769Z,17.06
2019-04-16T10:37:48.670Z,17.14
2019-04-16T10:38:48.603Z,17.35
2019-04-16T10:39:48.547Z,17.38
2019-04-16T10:40:48.483Z,17.34
2019-04-16T10:41:48.425Z,17.10
2019-04-16T10:42:48.358Z,17.09
2019-04-16T10:43:48.297Z,16.61
2019-04-16T10:44:48.258Z,16.59
2019-04-16T10:45:48.198Z,16.54
2019-04-16T10:46:48.120Z,16.28
2019-04-16T10:47:48.086Z,16.16
2019-04-16T10:48:47.996Z,16.09
2019-04-16T10:49:47.936Z,16.29
2019-04-16T10:50:47.873Z,16.51
2019-04-16T10:51:47.814Z,16.49
2019-04-16T10:52:47.753Z,16.65
2019-04-16T10:53:47.696Z,16.72
2019-04-16T10:54:47.632Z,16.80
2019-04-16T10:55:47.592Z,16.74
2019-04-16T10:56:47.513Z,16.84
2019-04-16T10:57:47.460Z,17.01
2019-04-16T10:58:47.395Z,17.22
2019-04-16T10:59:47.357Z,17.09
2019-04-16T11:00:47.305Z,17.14
2019-04-16T11:01:47.211Z,16.97
2019-04-16T11:02:47.149Z,16.84
2019-04-16T11:03:47.096Z,16.67
2019-04-16T11:04:47.028Z,16.65
2019-04-16T11:05:46.986Z,16.65
2019-04-16T11:06:46.913Z,16.73
2019-04-16T11:07:46.848Z,16.72
2019-04-16T11:08:46.804Z,16.76
2019-04-16T11:09:46.765Z,16.74
2019-04-16T11:10:46.671Z,17.12
2019-04-16T11:11:46.611Z,17.41
2019-04-16T11:12:46.545Z,17.49
2019-04-16T11:13:59.332Z,17.43
2019-04-16T11:14:46.438Z,17.27
2019-04-16T11:15:46.362Z,17.01
2019-04-16T11:16:46.305Z,16.91
2019-04-16T11:17:46.263Z,17.01
2019-04-16T11:18:46.181Z,16.95
2019-04-16T11:19:46.161Z,17.16
2019-04-16T11:20:46.072Z,17.02
2019-04-16T11:21:46.005Z,16.84
2019-04-16T11:22:45.989Z,16.98
2019-04-16T11:23:45.898Z,17.13
2019-04-16T11:24:45.824Z,17.06
2019-04-16T11:25:45.760Z,16.95
2019-04-16T11:26:45.705Z,17.10
2019-04-16T11:27:45.649Z,17.04
2019-04-16T11:28:45.674Z,17.01
2019-04-16T11:29:45.526Z,16.95
2019-04-16T11:30:48.616Z,17.09
2019-04-16T11:31:45.421Z,17.10
2019-04-16T11:32:45.342Z,16.99
2019-04-16T11:33:45.281Z,16.79
2019-04-16T11:34:45.220Z,16.76
2019-04-16T11:35:45.163Z,16.92
2019-04-16T11:36:45.178Z,17.10
2019-04-16T11:37:45.046Z,17.32
2019-04-16T11:38:44.977Z,17.32
2019-04-16T11:39:44.960Z,17.17
2019-04-16T11:40:44.944Z,17.09
2019-04-16T11:41:44.820Z,16.92
2019-04-16T11:42:44.765Z,16.79
2019-04-16T11:43:44.685Z,16.73
2019-04-16T11:44:44.618Z,16.72
2019-04-16T11:45:44.556Z,16.72
2019-04-16T11:46:44.503Z,16.70
2019-04-16T11:47:47.968Z,16.73
2019-04-16T11:48:44.416Z,16.83
2019-04-16T11:49:44.327Z,16.91
2019-04-16T11:50:44.249Z,16.83
2019-04-16T11:51:44.262Z,16.82
2019-04-16T11:52:44.133Z,17.02
2019-04-16T11:53:44.075Z,17.06
2019-04-16T11:54:46.776Z,17.16
2019-04-16T11:55:43.993Z,17.14
2019-04-16T11:56:43.883Z,17.13
2019-04-16T11:57:43.857Z,17.13
2019-04-16T11:58:43.790Z,17.19
2019-04-16T11:59:43.767Z,17.16
2019-04-16T12:00:43.649Z,16.94
2019-04-16T12:01:43.592Z,16.84
2019-04-16T12:02:43.533Z,16.72
2019-04-16T12:03:43.465Z,16.74
2019-04-16T12:04:43.432Z,16.62
2019-04-16T12:05:43.339Z,16.61
2019-04-16T12:06:43.302Z,16.74
2019-04-16T12:07:46.827Z,16.90
2019-04-16T12:08:43.181Z,17.16
2019-04-16T12:09:43.129Z,17.35
2019-04-16T12:10:43.050Z,17.38
2019-04-16T12:11:42.994Z,17.45
2019-04-16T12:12:42.935Z,17.57
2019-04-16T12:13:42.880Z,17.65
2019-04-16T12:14:43.676Z,17.78
2019-04-16T12:15:42.772Z,17.78
2019-04-16T12:16:42.696Z,17.91
2019-04-16T12:17:42.620Z,17.99
2019-04-16T12:18:42.571Z,18.02
2019-04-16T12:19:44.831Z,18.06
2019-04-16T12:20:42.434Z,18.12
2019-04-16T12:21:42.374Z,18.02
2019-04-16T12:22:42.322Z,17.88
2019-04-16T12:23:42.290Z,17.86
2019-04-16T12:24:42.211Z,17.88
2019-04-16T12:25:42.192Z,17.83
2019-04-16T12:26:42.069Z,17.84
2019-04-16T12:27:42.013Z,17.88
2019-04-16T12:28:43.246Z,17.94
2019-04-16T12:29:41.908Z,17.84
2019-04-16T12:30:41.850Z,17.84
2019-04-16T12:31:41.770Z,17.79
2019-04-16T12:32:41.724Z,17.83
2019-04-16T12:33:41.648Z,17.87
2019-04-16T12:34:41.585Z,17.90
2019-04-16T12:35:45.162Z,17.97
2019-04-16T12:36:41.588Z,18.13
2019-04-16T12:37:41.502Z,18.20
2019-04-16T12:38:41.349Z,18.06
2019-04-16T12:39:41.326Z,18.05
2019-04-16T12:40:42.315Z,17.78
2019-04-16T12:41:41.165Z,17.86
2019-04-16T12:42:42.350Z,17.75
2019-04-16T12:43:41.043Z,17.78
2019-04-16T12:44:45.784Z,17.75
2019-04-16T12:45:40.945Z,17.75
2019-04-16T12:46:40.861Z,17.59
2019-04-16T12:47:40.802Z,17.68
2019-04-16T12:48:40.784Z,17.57
2019-04-16T12:49:40.707Z,17.62
2019-04-16T12:50:40.642Z,17.71
2019-04-16T12:51:40.986Z,17.86
2019-04-16T12:52:40.508Z,17.83
2019-04-16T12:53:40.449Z,17.96
2019-04-16T12:54:40.416Z,18.01
2019-04-16T12:55:40.343Z,18.01
2019-04-16T12:56:41.272Z,17.94
2019-04-16T12:57:40.201Z,17.97
2019-04-16T12:58:40.141Z,17.96
2019-04-16T12:59:40.085Z,17.90
2019-04-16T13:00:40.021Z,17.91
2019-04-16T13:01:39.960Z,17.93
2019-04-16T13:02:41.919Z,17.97
2019-04-16T13:03:39.839Z,17.88
2019-04-16T13:04:39.779Z,17.83
2019-04-16T13:05:39.717Z,17.72
2019-04-16T13:06:39.657Z,17.81